Route Details

Aircraft Information
Group: Trans-Pacific Ops
Types: B744, MD11
Route Data
Distance: 2685nm
Duration: 7h 04m
Origin METAR: OMDB 010500Z 14009KT CAVOK 21/16 Q1018 NOSIG
Dest. METAR: EDDK 010520Z AUTO 26012KT 9999 FEW023 05/02 Q1020 NOSIG
Freight Data
(for Feb 1, 2023)
Load Factor:
96%
Manifested Cargo: 223,271lbs
Financial History
Total Freight: 123,376lbs
Average Load: 0lbs/flt
Fuel Used: 90,413lbs
Avg. Fuel Used: 0lbs/flt
Fuel Expense: $41,590
Avg. Fuel Expense: $0
Avg. Fuel Cost: $0/lbs
Total Gross Income: $340,518
Pilot Pay: $269
Total Expenses: $67,420
Total Revenue: $228,442
Average Revenue: $0

Capitol Logistics 538




OMDB
Dubai International Airport
Dubai, AE
EDDK
Cologne Bonn Airport
Cologne, DE